Time;durP1;ratioP1;P1;durP2;ratioP2;P2;SDS_P1;SDS_P2;PMS_P1;PMS_P2;Temp;Humidity;BMP_temperature;BMP_pressure;BME280_temperature;BME280_humidity;BME280_pressure;Samples;Min_cycle;Max_cycle;Signal;HPM_P1;HPM_P2
2022/10/06 00:01:18;;;;;;;1.27;0.45;;;16.10;78.50;;;;;;5044265;28;20028;-69
2022/10/06 00:03:45;;;;;;;3.88;0.85;;;16.10;78.50;;;;;;5051159;28;20093;-69
2022/10/06 00:06:12;;;;;;;1.13;0.50;;;16.10;78.30;;;;;;5057904;28;20029;-69
2022/10/06 00:08:40;;;;;;;1.58;1.10;;;16.10;78.30;;;;;;5062622;28;20053;-71
2022/10/06 00:11:07;;;;;;;1.33;0.50;;;16.00;78.40;;;;;;5041484;28;20024;-72
2022/10/06 00:13:34;;;;;;;1.15;0.55;;;16.00;78.30;;;;;;5058068;28;20427;-72
2022/10/06 00:15:59;;;;;;;0.60;0.43;;;16.00;78.30;;;;;;5051430;28;20548;-72
2022/10/06 00:18:27;;;;;;;1.55;0.77;;;16.00;78.30;;;;;;5061292;28;20107;-71
2022/10/06 00:20:58;;;;;;;0.77;0.60;;;16.00;78.10;;;;;;5062639;28;20098;-71
2022/10/06 00:23:23;;;;;;;0.40;0.40;;;16.00;78.00;;;;;;5061596;28;20040;-72
2022/10/06 00:25:49;;;;;;;2.25;1.17;;;16.00;77.90;;;;;;5042600;28;20384;-72
2022/10/06 00:28:15;;;;;;;2.67;0.82;;;16.00;77.90;;;;;;5057789;28;20033;-72
2022/10/06 00:30:41;;;;;;;0.90;0.70;;;15.90;77.90;;;;;;5042595;28;20494;-72
2022/10/06 00:33:11;;;;;;;2.70;0.60;;;15.90;78.10;;;;;;5054689;28;20025;-72
2022/10/06 00:35:37;;;;;;;1.65;0.68;;;15.80;78.00;;;;;;5059848;28;20467;-73
2022/10/06 00:38:03;;;;;;;3.40;0.75;;;15.80;78.00;;;;;;5051569;28;20035;-72
2022/10/06 00:40:30;;;;;;;5.72;1.05;;;15.70;78.00;;;;;;5051055;28;20044;-72
2022/10/06 00:43:00;;;;;;;2.88;0.80;;;15.70;78.00;;;;;;5054298;28;20047;-72
2022/10/06 00:45:47;;;;;;;1.27;0.73;;;15.70;77.80;;;;;;5060824;28;20078;-71
2022/10/06 00:48:20;;;;;;;1.05;0.70;;;15.80;77.60;;;;;;5060881;28;20487;-71
2022/10/06 00:50:46;;;;;;;1.02;0.63;;;15.80;77.50;;;;;;5056328;28;20032;-72
2022/10/06 00:53:13;;;;;;;1.17;0.90;;;15.70;77.20;;;;;;5055326;28;20119;-71
2022/10/06 00:55:39;;;;;;;5.75;0.90;;;15.70;77.10;;;;;;5054942;28;20035;-71
2022/10/06 00:58:06;;;;;;;1.20;0.60;;;15.70;76.60;;;;;;5055283;28;20057;-71
2022/10/06 01:00:32;;;;;;;1.83;0.40;;;15.70;76.60;;;;;;5063240;28;20402;-72
2022/10/06 01:03:04;;;;;;;1.92;0.60;;;15.70;76.60;;;;;;5056177;28;20025;-72
2022/10/06 01:05:34;;;;;;;19.92;1.25;;;15.70;76.40;;;;;;5056839;28;20079;-72
2022/10/06 01:08:00;;;;;;;5.03;1.08;;;15.60;76.40;;;;;;5065025;28;20025;-72
2022/10/06 01:10:26;;;;;;;0.80;0.55;;;15.60;76.40;;;;;;5065648;28;20029;-72
2022/10/06 01:12:52;;;;;;;0.65;0.50;;;15.60;76.40;;;;;;5065725;28;20059;-72
2022/10/06 01:15:19;;;;;;;1.45;0.68;;;15.50;76.30;;;;;;5040538;28;20032;-73
2022/10/06 01:17:54;;;;;;;1.15;1.00;;;15.50;76.20;;;;;;5042956;28;20056;-72
2022/10/06 01:20:21;;;;;;;1.33;0.63;;;15.60;76.20;;;;;;5066138;28;20060;-71
2022/10/06 01:22:59;;;;;;;1.38;0.73;;;15.60;76.10;;;;;;5057699;28;20083;-72
2022/10/06 01:25:25;;;;;;;1.05;0.65;;;15.50;75.80;;;;;;5060573;28;20501;-71
2022/10/06 01:27:53;;;;;;;10.05;0.95;;;15.50;75.90;;;;;;5061412;28;20025;-71
2022/10/06 01:30:30;;;;;;;2.80;0.90;;;15.50;75.80;;;;;;5060720;28;20024;-71
2022/10/06 01:32:56;;;;;;;5.63;0.93;;;15.50;75.80;;;;;;5058580;28;20115;-71
2022/10/06 01:35:22;;;;;;;2.85;0.60;;;15.40;75.90;;;;;;5058314;28;20117;-71
2022/10/06 01:37:47;;;;;;;5.93;0.80;;;15.40;75.90;;;;;;5047515;28;20036;-71
2022/10/06 01:40:13;;;;;;;2.35;0.70;;;15.40;75.90;;;;;;5044950;28;20063;-71
2022/10/06 01:42:39;;;;;;;4.78;0.80;;;15.40;75.80;;;;;;5059060;28;20025;-71
2022/10/06 01:45:05;;;;;;;2.65;0.60;;;15.40;75.80;;;;;;5061122;28;20429;-72
2022/10/06 01:47:32;;;;;;;1.38;0.73;;;15.30;75.70;;;;;;5057162;28;20032;-71
2022/10/06 01:49:58;;;;;;;1.25;0.70;;;15.30;75.70;;;;;;5067117;28;20107;-71
2022/10/06 01:52:25;;;;;;;0.75;0.73;;;15.30;75.70;;;;;;5055289;28;20107;-71
2022/10/06 01:54:51;;;;;;;1.15;0.60;;;15.30;75.60;;;;;;5058914;28;20037;-71
2022/10/06 01:57:17;;;;;;;1.58;0.55;;;15.30;75.60;;;;;;5014222;28;20048;-71
2022/10/06 01:59:42;;;;;;;1.23;0.52;;;15.30;75.50;;;;;;5058685;28;20450;-69
2022/10/06 02:02:08;;;;;;;2.70;0.65;;;15.30;75.60;;;;;;5063900;28;20028;-69
2022/10/06 02:04:34;;;;;;;1.42;0.70;;;15.30;75.50;;;;;;5059613;28;20060;-69
2022/10/06 02:07:00;;;;;;;2.95;0.93;;;15.30;75.40;;;;;;5021580;28;20056;-68
2022/10/06 02:09:25;;;;;;;1.00;0.68;;;15.30;75.30;;;;;;5052867;28;20067;-69
2022/10/06 02:11:51;;;;;;;1.80;0.98;;;15.20;75.30;;;;;;5036055;28;20481;-68
2022/10/06 02:14:17;;;;;;;3.25;1.27;;;15.20;75.40;;;;;;5052204;28;20487;-69
2022/10/06 02:16:43;;;;;;;5.30;1.27;;;15.20;75.50;;;;;;5035933;28;20112;-68
2022/10/06 02:19:09;;;;;;;3.63;1.35;;;15.20;75.40;;;;;;5060219;28;20064;-69
2022/10/06 02:21:35;;;;;;;4.85;1.38;;;15.20;75.30;;;;;;5037385;28;20039;-69
2022/10/06 02:24:00;;;;;;;1.20;0.98;;;15.20;75.30;;;;;;5052668;28;20059;-69
2022/10/06 02:26:26;;;;;;;1.25;0.77;;;15.10;75.30;;;;;;5041798;28;20048;-69
2022/10/06 02:28:52;;;;;;;1.90;1.23;;;15.10;75.30;;;;;;5055671;28;20029;-69
2022/10/06 02:31:17;;;;;;;1.45;0.85;;;15.10;75.40;;;;;;5032827;28;20052;-69
2022/10/06 02:33:43;;;;;;;0.90;0.75;;;15.10;75.30;;;;;;5058041;28;20025;-72
2022/10/06 02:36:12;;;;;;;4.55;1.45;;;15.10;75.30;;;;;;5060460;28;20033;-72
2022/10/06 02:38:38;;;;;;;0.70;0.65;;;15.00;75.30;;;;;;5064627;28;20025;-72
2022/10/06 02:41:04;;;;;;;1.88;0.77;;;15.00;75.40;;;;;;5062295;28;20576;-72
2022/10/06 02:43:30;;;;;;;1.88;1.10;;;15.00;75.20;;;;;;5060351;28;20028;-72
2022/10/06 02:46:02;;;;;;;2.15;1.00;;;15.00;75.20;;;;;;5022253;28;20043;-69
2022/10/06 02:48:28;;;;;;;3.15;1.15;;;14.90;75.30;;;;;;5060660;28;20089;-69
2022/10/06 02:51:03;;;;;;;4.95;0.85;;;14.90;75.50;;;;;;5044001;28;20021;-69
2022/10/06 02:53:29;;;;;;;0.88;0.55;;;14.80;75.30;;;;;;5054891;28;20112;-69
2022/10/06 02:55:59;;;;;;;0.70;0.50;;;14.90;75.40;;;;;;5057021;28;20024;-69
2022/10/06 02:58:31;;;;;;;2.75;0.88;;;14.90;75.20;;;;;;5044542;28;20459;-69
2022/10/06 03:01:05;;;;;;;2.28;0.95;;;14.80;75.10;;;;;;5038037;28;20039;-67
2022/10/06 03:03:34;;;;;;;9.90;1.25;;;14.80;75.30;;;;;;5062951;28;20082;-70
2022/10/06 03:06:04;;;;;;;4.57;0.98;;;14.80;75.40;;;;;;5059765;28;20471;-68
2022/10/06 03:08:30;;;;;;;7.25;0.47;;;14.70;75.40;;;;;;5065265;28;20031;-69
2022/10/06 03:11:01;;;;;;;2.22;0.60;;;14.70;75.50;;;;;;5068665;28;20471;-69
2022/10/06 03:13:30;;;;;;;14.63;1.05;;;14.70;75.50;;;;;;5065420;28;20029;-69
2022/10/06 03:15:59;;;;;;;1.13;1.00;;;14.60;75.50;;;;;;5054589;28;20082;-73
2022/10/06 03:18:24;;;;;;;7.03;1.33;;;14.60;75.50;;;;;;5038822;28;20549;-72
2022/10/06 03:20:50;;;;;;;2.47;1.13;;;14.60;75.50;;;;;;5057893;28;20156;-70
2022/10/06 03:23:16;;;;;;;1.90;0.80;;;14.60;75.50;;;;;;5055483;28;20484;-72
2022/10/06 03:25:42;;;;;;;3.03;1.05;;;14.60;75.50;;;;;;5056112;28;20044;-71
2022/10/06 03:28:07;;;;;;;2.30;0.65;;;14.50;75.50;;;;;;5052704;28;20170;-71
2022/10/06 03:30:35;;;;;;;0.60;0.60;;;14.50;75.60;;;;;;5037564;28;20040;-72
2022/10/06 03:33:00;;;;;;;8.80;1.10;;;14.50;75.50;;;;;;5067288;28;20052;-70
2022/10/06 03:35:26;;;;;;;0.90;0.88;;;14.50;75.50;;;;;;5062698;28;20048;-72
2022/10/06 03:37:52;;;;;;;1.80;0.90;;;14.50;75.50;;;;;;5065523;28;20040;-71
2022/10/06 03:40:18;;;;;;;3.13;0.85;;;14.50;75.50;;;;;;5061344;28;20029;-71
2022/10/06 03:42:43;;;;;;;0.60;0.57;;;14.50;75.50;;;;;;5061732;28;20020;-72
2022/10/06 03:45:09;;;;;;;1.58;0.82;;;14.40;75.50;;;;;;5059198;28;20024;-71
2022/10/06 03:47:35;;;;;;;1.92;1.02;;;14.40;75.50;;;;;;5066481;28;20047;-72
2022/10/06 03:50:00;;;;;;;1.13;0.85;;;14.40;75.60;;;;;;5054661;28;20400;-72
2022/10/06 03:52:26;;;;;;;2.10;1.00;;;14.40;75.60;;;;;;5058087;28;20037;-71
2022/10/06 03:54:52;;;;;;;5.45;1.58;;;14.30;75.60;;;;;;5057862;28;20094;-72
2022/10/06 03:57:18;;;;;;;3.75;0.60;;;14.30;75.70;;;;;;5056271;28;20028;-71
2022/10/06 03:59:44;;;;;;;0.65;0.55;;;14.30;75.80;;;;;;5041476;28;20033;-72
2022/10/06 04:02:10;;;;;;;12.00;0.80;;;14.30;75.90;;;;;;5046760;28;20031;-69
2022/10/06 04:04:37;;;;;;;1.25;0.70;;;14.30;75.80;;;;;;5048434;28;20452;-69
2022/10/06 04:07:02;;;;;;;5.22;1.60;;;14.30;75.60;;;;;;5065182;28;20059;-72
2022/10/06 04:09:28;;;;;;;0.90;0.63;;;14.30;75.60;;;;;;5059137;28;20544;-71
2022/10/06 04:11:54;;;;;;;2.67;1.10;;;14.30;75.60;;;;;;5056676;28;20024;-71
2022/10/06 04:14:19;;;;;;;4.63;1.25;;;14.30;75.50;;;;;;5041480;28;20074;-68
2022/10/06 04:16:47;;;;;;;0.90;0.90;;;14.30;75.60;;;;;;5045858;28;20066;-69
2022/10/06 04:19:14;;;;;;;4.43;1.05;;;14.20;75.60;;;;;;5051364;28;20392;-68
2022/10/06 04:21:42;;;;;;;3.60;0.98;;;14.20;75.70;;;;;;5035867;28;20029;-71
2022/10/06 04:24:09;;;;;;;1.45;0.60;;;14.20;75.70;;;;;;5049763;28;20028;-69
2022/10/06 04:26:38;;;;;;;3.40;1.05;;;14.20;75.80;;;;;;5058089;28;20082;-69
2022/10/06 04:29:04;;;;;;;4.13;0.80;;;14.20;75.80;;;;;;5055934;28;20458;-69
2022/10/06 04:31:34;;;;;;;1.35;0.60;;;14.20;75.80;;;;;;5058831;28;20463;-69
2022/10/06 04:34:01;;;;;;;12.38;1.67;;;14.20;75.70;;;;;;5036000;28;20111;-69
2022/10/06 04:36:30;;;;;;;2.83;1.20;;;14.20;75.70;;;;;;5061592;28;20152;-69
2022/10/06 04:39:00;;;;;;;4.90;1.10;;;14.10;75.60;;;;;;5060458;28;20538;-69
2022/10/06 04:41:33;;;;;;;1.95;0.85;;;14.10;75.70;;;;;;5040108;28;20395;-69
2022/10/06 04:44:00;;;;;;;0.60;0.60;;;14.10;75.80;;;;;;5064230;28;20023;-69
2022/10/06 04:46:26;;;;;;;0.77;0.63;;;14.00;75.80;;;;;;5063310;28;20074;-69
2022/10/06 04:48:53;;;;;;;1.05;0.93;;;14.00;75.80;;;;;;5059781;28;20454;-69
2022/10/06 04:51:20;;;;;;;3.67;0.95;;;13.90;75.90;;;;;;5058810;28;20020;-69
2022/10/06 04:53:47;;;;;;;4.50;0.85;;;13.90;76.70;;;;;;5056611;28;20124;-69
2022/10/06 04:56:18;;;;;;;2.38;1.00;;;13.80;76.20;;;;;;5044939;28;20462;-69
2022/10/06 04:58:46;;;;;;;3.35;1.00;;;13.80;76.20;;;;;;5061757;28;20044;-68
2022/10/06 05:01:18;;;;;;;2.45;1.00;;;13.80;76.30;;;;;;5055207;28;20033;-68
2022/10/06 05:03:45;;;;;;;6.47;1.77;;;13.80;76.30;;;;;;5060949;28;20032;-68
2022/10/06 05:06:29;;;;;;;2.80;1.30;;;13.70;76.50;;;;;;5063584;28;20029;-68
2022/10/06 05:08:57;;;;;;;1.13;0.47;;;13.70;76.60;;;;;;5062983;28;20103;-68
2022/10/06 05:11:23;;;;;;;2.22;1.20;;;13.60;76.70;;;;;;5064792;28;20063;-68
2022/10/06 05:13:50;;;;;;;3.50;1.00;;;13.60;76.80;;;;;;5061076;28;20052;-68
2022/10/06 05:16:17;;;;;;;6.13;1.42;;;13.60;76.90;;;;;;5064749;28;20042;-68
2022/10/06 05:18:43;;;;;;;2.60;1.02;;;13.60;76.90;;;;;;5048406;28;20036;-68
2022/10/06 05:21:19;;;;;;;2.72;1.08;;;13.60;76.90;;;;;;5059339;28;20029;-69
2022/10/06 05:23:46;;;;;;;2.42;1.13;;;13.60;76.80;;;;;;5067911;28;20025;-68
2022/10/06 05:26:14;;;;;;;2.33;1.27;;;13.60;76.90;;;;;;5064462;28;20143;-68
2022/10/06 05:28:39;;;;;;;5.30;1.00;;;13.50;76.90;;;;;;5061195;28;20039;-69
2022/10/06 05:31:06;;;;;;;2.95;1.50;;;13.50;77.00;;;;;;5049717;28;20479;-70
2022/10/06 05:33:34;;;;;;;7.80;1.17;;;13.50;76.90;;;;;;5065646;28;20036;-67
2022/10/06 05:36:06;;;;;;;10.60;1.38;;;13.50;76.90;;;;;;5065350;28;20174;-68
2022/10/06 05:38:32;;;;;;;1.00;0.80;;;13.50;77.00;;;;;;5060613;28;20380;-68
2022/10/06 05:41:11;;;;;;;3.75;1.02;;;13.40;76.90;;;;;;5043819;28;20084;-68
2022/10/06 05:43:37;;;;;;;1.70;1.17;;;13.40;77.00;;;;;;5067575;28;20589;-71
2022/10/06 05:46:19;;;;;;;0.85;0.80;;;13.40;77.10;;;;;;5064832;28;20128;-71
2022/10/06 05:48:49;;;;;;;7.55;1.50;;;13.40;77.10;;;;;;5041840;28;20380;-71
2022/10/06 05:51:17;;;;;;;3.30;0.88;;;13.30;77.20;;;;;;5057250;28;20518;-68
2022/10/06 05:53:44;;;;;;;2.85;1.02;;;13.30;77.40;;;;;;5054858;28;20499;-68
2022/10/06 05:56:14;;;;;;;0.50;0.50;;;13.30;77.30;;;;;;5060461;28;20029;-68
2022/10/06 05:58:42;;;;;;;2.67;0.77;;;13.30;78.00;;;;;;5035167;28;20448;-68
2022/10/06 06:01:16;;;;;;;7.53;1.35;;;13.30;77.40;;;;;;5032736;28;20549;-68
2022/10/06 06:03:46;;;;;;;3.00;1.40;;;13.30;77.50;;;;;;5066407;28;20403;-71
2022/10/06 06:06:33;;;;;;;1.80;1.13;;;13.30;77.50;;;;;;5068373;28;20047;-71
2022/10/06 06:09:05;;;;;;;4.72;1.25;;;13.40;77.30;;;;;;5066757;28;20070;-71
2022/10/06 06:11:32;;;;;;;;;;;13.30;77.70;;;;;;5046603;28;20028;-71
2022/10/06 06:14:00;;;;;;;1.08;0.88;;;13.40;77.40;;;;;;5056701;28;19953;-71
2022/10/06 06:16:29;;;;;;;3.15;1.52;;;13.30;77.40;;;;;;5066138;28;20083;-71
2022/10/06 06:18:55;;;;;;;1.48;0.82;;;13.30;77.40;;;;;;5051376;28;20028;-68
2022/10/06 06:21:21;;;;;;;2.85;0.93;;;13.30;77.30;;;;;;5044019;28;20116;-71
2022/10/06 06:23:49;;;;;;;9.77;1.40;;;13.40;77.40;;;;;;5044392;28;20107;-71
2022/10/06 06:26:35;;;;;;;4.80;1.65;;;13.40;77.50;;;;;;5068481;28;20024;-68
2022/10/06 06:29:02;;;;;;;1.08;0.60;;;13.40;77.40;;;;;;5054291;28;20028;-68
2022/10/06 06:31:36;;;;;;;1.85;0.88;;;13.40;77.40;;;;;;5040488;28;20076;-71
2022/10/06 06:34:03;;;;;;;5.20;0.75;;;13.40;77.40;;;;;;5055923;28;20020;-68
2022/10/06 06:36:34;;;;;;;5.07;1.63;;;13.40;77.30;;;;;;5055636;28;20032;-68
2022/10/06 06:39:05;;;;;;;4.18;1.23;;;13.40;77.20;;;;;;5065558;28;20070;-68
2022/10/06 06:41:34;;;;;;;1.05;0.88;;;13.50;77.30;;;;;;5066982;28;20506;-68
2022/10/06 06:43:59;;;;;;;1.55;1.02;;;13.50;77.30;;;;;;5064928;28;20021;-71
2022/10/06 06:46:30;;;;;;;1.80;1.15;;;13.50;77.30;;;;;;5063430;28;20035;-71
2022/10/06 06:49:01;;;;;;;2.63;1.10;;;13.50;77.30;;;;;;5062928;28;20032;-71
2022/10/06 06:51:26;;;;;;;2.15;1.45;;;13.50;77.30;;;;;;5063698;28;20108;-71
2022/10/06 06:53:52;;;;;;;3.95;1.17;;;13.50;77.30;;;;;;5041834;28;20186;-71
2022/10/06 06:56:22;;;;;;;2.63;1.42;;;13.50;77.20;;;;;;5064930;28;20051;-71
2022/10/06 06:58:47;;;;;;;3.25;1.25;;;13.50;77.30;;;;;;5062817;28;20066;-71
2022/10/06 07:01:17;;;;;;;3.55;1.00;;;13.50;77.30;;;;;;5060577;28;20104;-72
2022/10/06 07:03:45;;;;;;;3.15;1.08;;;13.60;77.20;;;;;;5054716;28;20112;-72
2022/10/06 07:06:15;;;;;;;3.22;1.27;;;13.60;77.10;;;;;;5056309;28;20027;-72
2022/10/06 07:08:42;;;;;;;1.17;1.02;;;13.60;77.00;;;;;;5047570;28;20111;-72
2022/10/06 07:11:12;;;;;;;1.50;1.17;;;13.70;76.90;;;;;;5061538;28;20024;-69
2022/10/06 07:13:39;;;;;;;1.60;0.77;;;13.70;76.80;;;;;;5054524;28;20039;-72
2022/10/06 07:27:04;;;;;;;4.63;1.90;;;13.80;76.80;;;;;;5056304;28;20051;-72
2022/10/06 07:29:30;;;;;;;2.17;1.08;;;13.80;76.90;;;;;;5063832;28;20057;-70
2022/10/06 07:31:55;;;;;;;1.52;1.00;;;13.90;76.80;;;;;;5046197;28;20467;-73
2022/10/06 07:34:22;;;;;;;5.30;1.25;;;13.90;76.70;;;;;;5055385;28;20442;-71
2022/10/06 07:36:52;;;;;;;2.63;0.70;;;14.00;76.60;;;;;;5060399;28;20391;-73
2022/10/06 07:39:19;;;;;;;5.95;1.40;;;14.00;76.40;;;;;;5062057;28;20025;-73
2022/10/06 07:41:44;;;;;;;3.42;1.80;;;14.10;76.30;;;;;;5042960;28;20427;-71
2022/10/06 07:44:10;;;;;;;4.05;1.20;;;14.10;76.20;;;;;;5055296;28;20032;-72
2022/10/06 07:46:36;;;;;;;2.33;1.10;;;14.10;76.10;;;;;;5064153;28;20496;-72
2022/10/06 07:49:01;;;;;;;9.45;1.75;;;14.20;76.00;;;;;;5058226;28;20035;-73
2022/10/06 07:51:27;;;;;;;1.35;1.10;;;14.20;75.80;;;;;;5056786;28;20036;-71
2022/10/06 07:53:53;;;;;;;6.57;2.10;;;14.20;75.80;;;;;;5057690;28;20064;-72
2022/10/06 07:56:19;;;;;;;0.60;0.60;;;14.20;75.90;;;;;;5061291;28;20041;-72
2022/10/06 07:58:50;;;;;;;6.65;1.67;;;14.20;75.70;;;;;;5047265;28;20044;-71
2022/10/06 08:01:19;;;;;;;2.92;1.35;;;14.30;75.70;;;;;;5068995;28;20533;-71
2022/10/06 08:03:47;;;;;;;4.63;1.45;;;14.40;75.40;;;;;;5052494;28;20031;-71
2022/10/06 08:06:18;;;;;;;2.72;0.90;;;14.60;75.30;;;;;;5037131;28;20033;-73
2022/10/06 08:08:46;;;;;;;2.45;0.95;;;14.70;75.00;;;;;;5060691;28;20365;-68
2022/10/06 08:11:13;;;;;;;3.67;1.10;;;14.70;74.60;;;;;;5065910;28;20487;-68
2022/10/06 08:13:42;;;;;;;5.35;1.50;;;14.80;74.80;;;;;;5047307;28;20028;-69
2022/10/06 08:16:14;;;;;;;4.45;1.25;;;14.80;75.30;;;;;;5038092;28;20024;-69
2022/10/06 08:18:41;;;;;;;2.90;1.00;;;14.90;74.50;;;;;;5056616;28;20024;-69
2022/10/06 08:21:29;;;;;;;2.33;1.23;;;15.00;74.30;;;;;;5068203;28;20425;-69
2022/10/06 08:23:56;;;;;;;5.50;1.08;;;15.00;74.10;;;;;;5066153;28;20429;-69
2022/10/06 08:26:24;;;;;;;7.38;1.30;;;15.00;73.80;;;;;;5065149;28;20063;-72
2022/10/06 08:28:51;;;;;;;11.20;2.10;;;15.00;73.70;;;;;;5055942;28;20029;-71
2022/10/06 08:31:20;;;;;;;3.42;1.27;;;15.10;73.70;;;;;;5061844;28;20059;-69
2022/10/06 08:33:46;;;;;;;2.15;1.25;;;15.20;73.60;;;;;;5061185;28;20029;-72
2022/10/06 08:36:18;;;;;;;6.68;1.27;;;15.40;73.40;;;;;;5059001;28;20037;-72
2022/10/06 08:38:50;;;;;;;18.17;2.30;;;15.50;73.20;;;;;;5060962;28;20029;-70
2022/10/06 08:41:21;;;;;;;3.80;0.90;;;15.50;72.70;;;;;;5059593;28;20373;-70
2022/10/06 08:44:15;;;;;;;1.00;0.85;;;15.60;72.50;;;;;;5054401;28;20036;-69
2022/10/06 08:47:03;;;;;;;5.93;1.30;;;15.60;72.40;;;;;;5016626;28;20037;-72
2022/10/06 08:49:38;;;;;;;0.93;0.73;;;15.80;72.20;;;;;;5053351;28;20021;-72
2022/10/06 08:52:29;;;;;;;3.05;0.90;;;15.90;71.80;;;;;;5056467;28;20029;-71
2022/10/06 08:55:28;;;;;;;8.10;1.25;;;16.10;71.60;;;;;;5057444;28;20025;-71
2022/10/06 08:58:12;;;;;;;2.45;0.98;;;16.20;71.00;;;;;;5039013;28;20491;-72
2022/10/06 09:00:38;;;;;;;4.85;1.20;;;16.30;70.60;;;;;;5050929;28;20028;-72
2022/10/06 09:03:04;;;;;;;3.58;1.13;;;16.40;70.40;;;;;;5015634;28;20024;-72
2022/10/06 09:05:33;;;;;;;3.70;1.20;;;16.50;69.80;;;;;;5057823;28;20036;-72
2022/10/06 09:08:09;;;;;;;1.33;1.17;;;16.60;69.80;;;;;;5063896;28;20032;-71
2022/10/06 09:10:56;;;;;;;4.72;1.35;;;16.70;69.50;;;;;;5063004;28;20078;-71
2022/10/06 09:13:29;;;;;;;2.65;1.40;;;16.80;68.70;;;;;;5062728;28;20443;-71
2022/10/06 09:16:00;;;;;;;1.98;0.80;;;16.90;68.20;;;;;;5046282;28;20119;-68
2022/10/06 09:18:37;;;;;;;3.80;0.80;;;17.00;67.50;;;;;;5042649;28;20025;-68
2022/10/06 09:21:10;;;;;;;1.92;1.00;;;17.00;66.10;;;;;;5059223;28;20315;-68
2022/10/06 09:23:48;;;;;;;3.90;0.98;;;17.00;66.20;;;;;;5052996;28;20032;-69
2022/10/06 09:26:21;;;;;;;1.65;0.70;;;17.10;66.10;;;;;;5059973;28;20017;-68
2022/10/06 09:28:50;;;;;;;;;;;17.20;66.00;;;;;;5067683;28;20024;-68
2022/10/06 09:31:26;;;;;;;2.40;0.77;;;17.30;65.50;;;;;;5057317;28;19995;-69
2022/10/06 09:34:03;;;;;;;1.05;0.75;;;17.40;64.80;;;;;;5068671;28;20031;-69
2022/10/06 09:36:30;;;;;;;1.52;0.75;;;17.50;64.90;;;;;;5051560;28;20035;-72
2022/10/06 09:38:58;;;;;;;1.60;0.93;;;17.60;64.60;;;;;;5064636;28;20036;-68
2022/10/06 09:41:36;;;;;;;2.33;0.80;;;17.60;63.60;;;;;;5063620;28;20028;-69
2022/10/06 09:44:23;;;;;;;3.08;1.20;;;17.50;63.90;;;;;;5064767;28;20115;-68
2022/10/06 09:46:49;;;;;;;2.65;0.85;;;17.60;63.80;;;;;;5064718;28;20078;-68
2022/10/06 09:49:19;;;;;;;1.65;0.80;;;17.60;63.40;;;;;;5040690;28;20399;-68
2022/10/06 09:52:13;;;;;;;4.60;0.88;;;17.70;63.50;;;;;;5069603;28;20116;-68
2022/10/06 09:54:43;;;;;;;1.38;0.70;;;17.80;63.40;;;;;;5051268;28;20089;-68
2022/10/06 09:57:30;;;;;;;1.65;0.60;;;17.80;62.50;;;;;;5070339;28;20107;-71
2022/10/06 09:59:58;;;;;;;0.28;0.28;;;17.90;62.90;;;;;;5060175;28;20115;-71
2022/10/06 10:02:35;;;;;;;0.95;0.70;;;18.10;63.30;;;;;;5043022;28;20033;-71
2022/10/06 10:05:05;;;;;;;1.80;0.85;;;18.30;62.50;;;;;;5061974;28;20099;-72
2022/10/06 10:07:34;;;;;;;3.30;1.05;;;18.40;61.60;;;;;;5057339;28;20090;-69
2022/10/06 10:10:22;;;;;;;2.17;0.82;;;18.60;61.70;;;;;;5070070;28;20496;-69
2022/10/06 10:12:56;;;;;;;2.00;0.73;;;18.80;61.60;;;;;;5053321;28;20416;-69
2022/10/06 10:15:53;;;;;;;3.65;0.65;;;19.10;60.00;;;;;;5064947;28;20036;-69
2022/10/06 10:18:25;;;;;;;2.83;1.00;;;19.10;57.50;;;;;;5066489;28;20127;-69
2022/10/06 10:21:03;;;;;;;0.73;0.32;;;18.90;58.70;;;;;;5064561;28;20036;-71
2022/10/06 10:23:37;;;;;;;2.67;0.80;;;18.90;58.90;;;;;;5061889;28;20108;-72
2022/10/06 10:26:31;;;;;;;1.73;0.85;;;18.70;58.50;;;;;;5059696;28;20109;-72
2022/10/06 10:29:10;;;;;;;2.17;0.50;;;18.50;58.10;;;;;;5060279;28;20047;-71
2022/10/06 10:31:47;;;;;;;1.27;0.85;;;18.40;59.10;;;;;;5059255;28;20012;-72
2022/10/06 10:34:49;;;;;;;4.00;1.00;;;18.60;59.10;;;;;;5057736;28;20094;-72
2022/10/06 10:37:30;;;;;;;9.32;0.73;;;18.90;58.40;;;;;;5060394;28;20502;-69
2022/10/06 10:40:34;;;;;;;5.82;0.75;;;19.20;58.50;;;;;;5060978;28;20017;-69
2022/10/06 10:43:03;;;;;;;3.67;0.63;;;19.30;57.00;;;;;;4980636;28;20033;-69
2022/10/06 10:45:35;;;;;;;0.45;0.38;;;19.30;56.80;;;;;;5042386;28;20139;-69
2022/10/06 10:48:05;;;;;;;1.38;0.70;;;19.40;56.30;;;;;;5058798;28;20040;-72
2022/10/06 10:50:38;;;;;;;1.05;0.68;;;19.30;56.10;;;;;;5047444;28;20078;-72
2022/10/06 10:53:15;;;;;;;1.23;0.70;;;19.20;56.20;;;;;;5044133;28;20039;-72
2022/10/06 10:55:44;;;;;;;4.22;0.80;;;19.10;56.30;;;;;;5043386;28;20070;-72
2022/10/06 10:58:18;;;;;;;2.67;0.80;;;19.20;56.80;;;;;;5059650;28;20499;-72
2022/10/06 11:00:50;;;;;;;3.28;0.82;;;19.20;56.90;;;;;;5061024;28;20029;-73
2022/10/06 11:03:16;;;;;;;1.88;0.70;;;19.00;54.90;;;;;;5062724;28;20476;-72
2022/10/06 11:05:53;;;;;;;1.55;0.70;;;18.70;56.30;;;;;;5038002;28;20462;-72
2022/10/06 11:08:37;;;;;;;2.22;1.17;;;18.60;57.00;;;;;;5056257;28;20032;-70
2022/10/06 11:11:11;;;;;;;1.85;1.10;;;18.80;57.30;;;;;;5039982;28;20488;-72
2022/10/06 11:13:45;;;;;;;1.17;0.60;;;19.20;56.60;;;;;;5062975;28;20029;-72
2022/10/06 11:16:28;;;;;;;2.75;0.75;;;19.70;56.30;;;;;;5053257;28;20456;-70
2022/10/06 11:19:16;;;;;;;1.10;0.50;;;20.30;55.50;;;;;;5041348;28;20017;-70
2022/10/06 11:22:04;;;;;;;3.03;0.70;;;20.60;52.80;;;;;;5064620;28;20305;-70
2022/10/06 11:24:48;;;;;;;1.98;1.02;;;20.60;52.70;;;;;;5054730;28;20029;-70
2022/10/06 11:27:20;;;;;;;0.52;0.52;;;20.60;52.90;;;;;;5060949;28;20031;-72
2022/10/06 11:30:01;;;;;;;2.22;0.70;;;20.70;51.70;;;;;;5056634;28;20391;-72
2022/10/06 11:32:30;;;;;;;6.28;1.05;;;20.60;51.70;;;;;;5061367;28;20537;-70
2022/10/06 11:34:56;;;;;;;0.68;0.52;;;20.60;50.90;;;;;;5057080;28;20017;-70
2022/10/06 11:37:48;;;;;;;0.52;0.52;;;20.50;51.90;;;;;;5038811;28;20045;-72
2022/10/06 11:40:25;;;;;;;;;;;20.50;52.20;;;;;;5050861;28;20400;-70
2022/10/06 11:42:56;;;;;;;2.65;0.70;;;20.50;51.80;;;;;;5060927;28;19916;-72
2022/10/06 11:45:58;;;;;;;0.88;0.68;;;20.40;52.10;;;;;;5048721;28;20056;-70
2022/10/06 11:48:29;;;;;;;1.90;0.95;;;20.50;51.40;;;;;;5040450;28;20139;-72
2022/10/06 11:51:16;;;;;;;1.70;0.70;;;20.60;51.70;;;;;;5055865;28;20369;-72
2022/10/06 11:53:43;;;;;;;0.55;0.55;;;20.80;51.20;;;;;;5040382;28;20036;-72
2022/10/06 11:56:17;;;;;;;3.45;0.65;;;21.00;51.20;;;;;;5062486;28;20476;-72
2022/10/06 11:58:55;;;;;;;0.60;0.50;;;21.00;49.60;;;;;;5045272;28;20047;-72
2022/10/06 12:01:46;;;;;;;0.82;0.52;;;21.00;50.40;;;;;;5055528;28;20464;-70
2022/10/06 12:04:14;;;;;;;3.40;0.52;;;21.00;50.70;;;;;;5043406;28;20037;-70
2022/10/06 12:06:46;;;;;;;2.25;0.73;;;20.80;50.70;;;;;;5041983;28;20503;-70
2022/10/06 12:09:32;;;;;;;0.55;0.35;;;20.70;51.00;;;;;;5052645;28;20280;-70
2022/10/06 12:12:18;;;;;;;1.67;0.95;;;20.40;50.80;;;;;;5043128;28;20115;-70
2022/10/06 12:15:11;;;;;;;1.00;0.60;;;20.00;51.70;;;;;;5039232;28;20033;-71
2022/10/06 12:17:36;;;;;;;;;;;19.70;52.80;;;;;;5050353;28;20102;-71
2022/10/06 12:20:43;;;;;;;1.27;0.73;;;19.70;53.40;;;;;;5058242;28;19959;-71
2022/10/06 12:23:38;;;;;;;0.70;0.50;;;19.80;52.90;;;;;;5041778;28;20444;-70
2022/10/06 12:26:27;;;;;;;1.17;0.70;;;20.10;52.60;;;;;;5034018;28;20045;-71
2022/10/06 12:29:23;;;;;;;3.85;1.30;;;20.50;51.70;;;;;;5011079;28;20044;-71
2022/10/06 12:32:07;;;;;;;0.85;0.50;;;20.70;50.20;;;;;;5049884;28;20093;-72
2022/10/06 12:34:57;;;;;;;1.25;0.47;;;20.70;48.90;;;;;;5059009;28;20028;-72
2022/10/06 12:37:43;;;;;;;1.38;0.95;;;20.70;49.80;;;;;;5063973;28;20043;-72
2022/10/06 12:40:47;;;;;;;2.45;0.68;;;20.80;49.40;;;;;;5056787;28;20024;-71
2022/10/06 12:43:13;;;;;;;1.33;0.90;;;20.60;49.80;;;;;;5057613;28;20021;-71
2022/10/06 12:46:03;;;;;;;1.45;0.77;;;20.40;50.40;;;;;;5040164;28;20422;-72
2022/10/06 12:48:36;;;;;;;0.77;0.40;;;20.20;50.90;;;;;;5063292;28;20508;-72
2022/10/06 12:51:33;;;;;;;1.58;0.50;;;20.00;51.30;;;;;;5059360;28;20143;-71
2022/10/06 12:54:01;;;;;;;1.15;0.77;;;19.80;51.00;;;;;;5060729;28;20136;-71
2022/10/06 12:56:31;;;;;;;0.25;0.25;;;19.60;51.70;;;;;;5058831;28;20484;-72
2022/10/06 12:58:57;;;;;;;4.03;0.82;;;19.50;52.40;;;;;;5060163;28;20041;-71
2022/10/06 13:01:24;;;;;;;1.48;0.60;;;19.50;52.70;;;;;;5041487;28;20041;-72
2022/10/06 13:03:52;;;;;;;0.52;0.38;;;19.50;52.90;;;;;;5058289;28;20040;-72
2022/10/06 13:06:23;;;;;;;1.52;0.65;;;19.50;53.30;;;;;;5043606;28;20109;-71
2022/10/06 13:09:04;;;;;;;0.82;0.60;;;19.60;53.50;;;;;;5061202;28;20021;-71
2022/10/06 13:11:30;;;;;;;2.17;0.70;;;19.60;53.50;;;;;;5068685;28;20028;-71
2022/10/06 13:14:12;;;;;;;1.02;0.70;;;19.50;53.40;;;;;;5061886;28;20040;-71
2022/10/06 13:16:41;;;;;;;0.55;0.50;;;19.40;53.70;;;;;;5065861;28;20036;-70
2022/10/06 13:19:25;;;;;;;3.10;1.02;;;19.50;53.80;;;;;;5065551;28;20025;-71
2022/10/06 13:21:52;;;;;;;2.15;0.65;;;20.00;53.00;;;;;;5064994;28;20079;-71